sensor_id;sensor_type;location;lat;lon;timestamp;P1;durP1;ratioP1;P2;durP2;ratioP2
24261;SDS011;12385;51.412;5.540;2022-12-18T00:02:17;87.20;;;34.08;;
24261;SDS011;12385;51.412;5.540;2022-12-18T00:04:42;87.03;;;33.83;;
24261;SDS011;12385;51.412;5.540;2022-12-18T00:07:08;82.70;;;34.00;;
24261;SDS011;12385;51.412;5.540;2022-12-18T00:09:34;87.90;;;34.03;;
24261;SDS011;12385;51.412;5.540;2022-12-18T00:11:59;83.60;;;31.98;;
24261;SDS011;12385;51.412;5.540;2022-12-18T00:14:25;85.57;;;32.65;;
24261;SDS011;12385;51.412;5.540;2022-12-18T00:16:51;83.20;;;33.55;;
24261;SDS011;12385;51.412;5.540;2022-12-18T00:19:16;77.90;;;30.25;;
24261;SDS011;12385;51.412;5.540;2022-12-18T00:21:42;82.78;;;32.97;;
24261;SDS011;12385;51.412;5.540;2022-12-18T00:24:09;81.60;;;32.55;;
24261;SDS011;12385;51.412;5.540;2022-12-18T00:26:36;82.97;;;31.50;;
24261;SDS011;12385;51.412;5.540;2022-12-18T00:29:03;80.55;;;30.42;;
24261;SDS011;12385;51.412;5.540;2022-12-18T00:31:35;78.45;;;30.45;;
24261;SDS011;12385;51.412;5.540;2022-12-18T00:34:02;80.93;;;31.65;;
24261;SDS011;12385;51.412;5.540;2022-12-18T00:36:29;83.20;;;32.28;;
24261;SDS011;12385;51.412;5.540;2022-12-18T00:38:57;83.47;;;33.15;;
24261;SDS011;12385;51.412;5.540;2022-12-18T00:41:24;89.03;;;32.47;;
24261;SDS011;12385;51.412;5.540;2022-12-18T00:44:09;88.97;;;34.00;;
24261;SDS011;12385;51.412;5.540;2022-12-18T00:46:37;62.60;;;25.40;;
24261;SDS011;12385;51.412;5.540;2022-12-18T00:49:03;87.82;;;32.90;;
24261;SDS011;12385;51.412;5.540;2022-12-18T00:51:29;78.82;;;31.58;;
24261;SDS011;12385;51.412;5.540;2022-12-18T00:53:55;83.57;;;32.35;;
24261;SDS011;12385;51.412;5.540;2022-12-18T00:56:21;85.38;;;31.45;;
24261;SDS011;12385;51.412;5.540;2022-12-18T00:58:47;89.15;;;33.55;;
24261;SDS011;12385;51.412;5.540;2022-12-18T01:01:13;80.53;;;31.20;;
24261;SDS011;12385;51.412;5.540;2022-12-18T01:03:39;89.57;;;33.60;;
24261;SDS011;12385;51.412;5.540;2022-12-18T01:06:05;79.60;;;32.55;;
24261;SDS011;12385;51.412;5.540;2022-12-18T01:08:32;86.18;;;32.00;;
24261;SDS011;12385;51.412;5.540;2022-12-18T01:10:58;80.07;;;31.38;;
24261;SDS011;12385;51.412;5.540;2022-12-18T01:13:23;79.47;;;32.97;;
24261;SDS011;12385;51.412;5.540;2022-12-18T01:15:49;81.85;;;31.83;;
24261;SDS011;12385;51.412;5.540;2022-12-18T01:18:15;77.97;;;31.60;;
24261;SDS011;12385;51.412;5.540;2022-12-18T01:20:41;84.80;;;32.63;;
24261;SDS011;12385;51.412;5.540;2022-12-18T01:23:06;80.70;;;30.88;;
24261;SDS011;12385;51.412;5.540;2022-12-18T01:25:32;77.82;;;31.35;;
24261;SDS011;12385;51.412;5.540;2022-12-18T01:27:57;76.47;;;31.98;;
24261;SDS011;12385;51.412;5.540;2022-12-18T01:30:23;81.75;;;31.25;;
24261;SDS011;12385;51.412;5.540;2022-12-18T01:32:48;76.90;;;30.83;;
24261;SDS011;12385;51.412;5.540;2022-12-18T01:35:14;77.50;;;31.63;;
24261;SDS011;12385;51.412;5.540;2022-12-18T01:37:40;76.50;;;30.55;;
24261;SDS011;12385;51.412;5.540;2022-12-18T01:40:05;84.72;;;31.77;;
24261;SDS011;12385;51.412;5.540;2022-12-18T01:42:32;78.88;;;31.40;;
24261;SDS011;12385;51.412;5.540;2022-12-18T01:45:05;78.30;;;31.95;;
24261;SDS011;12385;51.412;5.540;2022-12-18T01:52:50;70.97;;;28.45;;
24261;SDS011;12385;51.412;5.540;2022-12-18T01:55:19;55.58;;;22.40;;
24261;SDS011;12385;51.412;5.540;2022-12-18T01:57:49;67.65;;;27.58;;
24261;SDS011;12385;51.412;5.540;2022-12-18T02:00:18;56.27;;;23.93;;
24261;SDS011;12385;51.412;5.540;2022-12-18T02:02:45;72.10;;;28.53;;
24261;SDS011;12385;51.412;5.540;2022-12-18T02:05:12;72.55;;;28.08;;
24261;SDS011;12385;51.412;5.540;2022-12-18T02:10:45;73.82;;;29.02;;
24261;SDS011;12385;51.412;5.540;2022-12-18T02:18:27;70.35;;;28.42;;
24261;SDS011;12385;51.412;5.540;2022-12-18T02:20:59;70.03;;;27.77;;
24261;SDS011;12385;51.412;5.540;2022-12-18T02:26:48;66.07;;;27.08;;
24261;SDS011;12385;51.412;5.540;2022-12-18T02:29:49;63.53;;;26.95;;
24261;SDS011;12385;51.412;5.540;2022-12-18T02:32:15;61.20;;;25.90;;
24261;SDS011;12385;51.412;5.540;2022-12-18T02:34:46;67.70;;;27.40;;
24261;SDS011;12385;51.412;5.540;2022-12-18T02:37:14;66.97;;;26.90;;
24261;SDS011;12385;51.412;5.540;2022-12-18T02:39:43;63.67;;;26.02;;
24261;SDS011;12385;51.412;5.540;2022-12-18T02:42:10;67.13;;;25.90;;
24261;SDS011;12385;51.412;5.540;2022-12-18T02:44:48;61.42;;;25.48;;
24261;SDS011;12385;51.412;5.540;2022-12-18T02:47:16;62.30;;;25.95;;
24261;SDS011;12385;51.412;5.540;2022-12-18T02:55:27;60.85;;;25.20;;
24261;SDS011;12385;51.412;5.540;2022-12-18T03:00:51;67.30;;;25.92;;
24261;SDS011;12385;51.412;5.540;2022-12-18T03:06:10;59.17;;;25.30;;
24261;SDS011;12385;51.412;5.540;2022-12-18T03:08:43;60.58;;;25.65;;
24261;SDS011;12385;51.412;5.540;2022-12-18T03:11:12;63.38;;;25.02;;
24261;SDS011;12385;51.412;5.540;2022-12-18T03:16:23;62.88;;;24.83;;
24261;SDS011;12385;51.412;5.540;2022-12-18T03:18:54;56.90;;;24.25;;
24261;SDS011;12385;51.412;5.540;2022-12-18T03:21:28;53.13;;;23.20;;
24261;SDS011;12385;51.412;5.540;2022-12-18T03:23:58;59.90;;;24.98;;
24261;SDS011;12385;51.412;5.540;2022-12-18T03:26:25;54.78;;;24.02;;
24261;SDS011;12385;51.412;5.540;2022-12-18T03:28:54;58.08;;;23.63;;
24261;SDS011;12385;51.412;5.540;2022-12-18T03:31:24;57.47;;;24.00;;
24261;SDS011;12385;51.412;5.540;2022-12-18T03:33:54;60.90;;;25.93;;
24261;SDS011;12385;51.412;5.540;2022-12-18T03:36:21;54.65;;;23.23;;
24261;SDS011;12385;51.412;5.540;2022-12-18T03:38:48;58.33;;;24.48;;
24261;SDS011;12385;51.412;5.540;2022-12-18T03:41:38;57.83;;;23.38;;
24261;SDS011;12385;51.412;5.540;2022-12-18T03:44:29;57.58;;;23.52;;
24261;SDS011;12385;51.412;5.540;2022-12-18T03:49:46;55.55;;;23.15;;
24261;SDS011;12385;51.412;5.540;2022-12-18T03:52:36;60.78;;;23.45;;
24261;SDS011;12385;51.412;5.540;2022-12-18T03:55:03;53.00;;;22.65;;
24261;SDS011;12385;51.412;5.540;2022-12-18T03:57:32;56.53;;;23.30;;
24261;SDS011;12385;51.412;5.540;2022-12-18T04:00:00;54.10;;;22.73;;
24261;SDS011;12385;51.412;5.540;2022-12-18T04:02:31;57.55;;;22.35;;
24261;SDS011;12385;51.412;5.540;2022-12-18T04:05:00;52.10;;;22.15;;
24261;SDS011;12385;51.412;5.540;2022-12-18T04:07:29;51.90;;;22.13;;
24261;SDS011;12385;51.412;5.540;2022-12-18T04:09:56;55.83;;;23.23;;
24261;SDS011;12385;51.412;5.540;2022-12-18T04:12:24;56.30;;;23.17;;
24261;SDS011;12385;51.412;5.540;2022-12-18T04:14:51;48.47;;;21.15;;
24261;SDS011;12385;51.412;5.540;2022-12-18T04:17:17;52.38;;;22.88;;
24261;SDS011;12385;51.412;5.540;2022-12-18T04:19:43;60.70;;;23.00;;
24261;SDS011;12385;51.412;5.540;2022-12-18T04:22:09;51.95;;;21.13;;
24261;SDS011;12385;51.412;5.540;2022-12-18T04:24:35;54.08;;;21.17;;
24261;SDS011;12385;51.412;5.540;2022-12-18T04:27:01;50.95;;;23.17;;
24261;SDS011;12385;51.412;5.540;2022-12-18T04:29:26;51.05;;;20.25;;
24261;SDS011;12385;51.412;5.540;2022-12-18T04:31:52;51.38;;;21.52;;
24261;SDS011;12385;51.412;5.540;2022-12-18T04:34:17;50.58;;;22.00;;
24261;SDS011;12385;51.412;5.540;2022-12-18T04:36:43;46.30;;;20.70;;
24261;SDS011;12385;51.412;5.540;2022-12-18T04:39:08;48.63;;;21.25;;
24261;SDS011;12385;51.412;5.540;2022-12-18T04:41:34;49.80;;;21.45;;
24261;SDS011;12385;51.412;5.540;2022-12-18T04:44:00;47.92;;;21.27;;
24261;SDS011;12385;51.412;5.540;2022-12-18T04:46:26;47.42;;;20.92;;
24261;SDS011;12385;51.412;5.540;2022-12-18T04:48:52;49.95;;;21.38;;
24261;SDS011;12385;51.412;5.540;2022-12-18T04:51:17;47.78;;;20.85;;
24261;SDS011;12385;51.412;5.540;2022-12-18T04:53:43;49.58;;;21.33;;
24261;SDS011;12385;51.412;5.540;2022-12-18T04:56:10;55.95;;;21.52;;
24261;SDS011;12385;51.412;5.540;2022-12-18T04:58:37;51.58;;;20.52;;
24261;SDS011;12385;51.412;5.540;2022-12-18T05:01:04;55.00;;;21.42;;
24261;SDS011;12385;51.412;5.540;2022-12-18T05:03:30;45.75;;;20.70;;
24261;SDS011;12385;51.412;5.540;2022-12-18T05:05:56;47.63;;;20.05;;
24261;SDS011;12385;51.412;5.540;2022-12-18T05:08:22;48.75;;;20.98;;
24261;SDS011;12385;51.412;5.540;2022-12-18T05:10:48;50.42;;;20.23;;
24261;SDS011;12385;51.412;5.540;2022-12-18T05:13:13;44.72;;;20.48;;
24261;SDS011;12385;51.412;5.540;2022-12-18T05:15:39;48.15;;;19.88;;
24261;SDS011;12385;51.412;5.540;2022-12-18T05:18:06;46.30;;;19.90;;
24261;SDS011;12385;51.412;5.540;2022-12-18T05:20:32;48.10;;;20.45;;
24261;SDS011;12385;51.412;5.540;2022-12-18T05:22:58;42.47;;;19.73;;
24261;SDS011;12385;51.412;5.540;2022-12-18T05:25:23;50.20;;;21.10;;
24261;SDS011;12385;51.412;5.540;2022-12-18T05:27:49;47.60;;;20.48;;
24261;SDS011;12385;51.412;5.540;2022-12-18T05:30:15;48.90;;;20.65;;
24261;SDS011;12385;51.412;5.540;2022-12-18T05:32:41;48.08;;;20.25;;
24261;SDS011;12385;51.412;5.540;2022-12-18T05:35:08;50.25;;;20.77;;
24261;SDS011;12385;51.412;5.540;2022-12-18T05:37:34;46.28;;;19.95;;
24261;SDS011;12385;51.412;5.540;2022-12-18T05:40:00;47.90;;;20.40;;
24261;SDS011;12385;51.412;5.540;2022-12-18T05:42:26;46.47;;;20.73;;
24261;SDS011;12385;51.412;5.540;2022-12-18T05:44:52;47.13;;;20.10;;
24261;SDS011;12385;51.412;5.540;2022-12-18T05:47:17;50.42;;;20.27;;
24261;SDS011;12385;51.412;5.540;2022-12-18T05:49:43;47.35;;;20.95;;
24261;SDS011;12385;51.412;5.540;2022-12-18T05:52:09;47.47;;;20.23;;
24261;SDS011;12385;51.412;5.540;2022-12-18T05:54:34;45.30;;;20.58;;
24261;SDS011;12385;51.412;5.540;2022-12-18T05:57:00;51.53;;;19.75;;
24261;SDS011;12385;51.412;5.540;2022-12-18T05:59:25;43.53;;;19.17;;
24261;SDS011;12385;51.412;5.540;2022-12-18T06:01:51;45.67;;;19.90;;
24261;SDS011;12385;51.412;5.540;2022-12-18T06:04:17;49.88;;;21.45;;
24261;SDS011;12385;51.412;5.540;2022-12-18T06:06:42;42.80;;;20.10;;
24261;SDS011;12385;51.412;5.540;2022-12-18T06:09:08;50.55;;;20.70;;
24261;SDS011;12385;51.412;5.540;2022-12-18T06:11:35;45.92;;;20.10;;
24261;SDS011;12385;51.412;5.540;2022-12-18T06:14:02;50.88;;;19.55;;
24261;SDS011;12385;51.412;5.540;2022-12-18T06:16:29;50.72;;;20.83;;
24261;SDS011;12385;51.412;5.540;2022-12-18T06:18:58;42.28;;;18.52;;
24261;SDS011;12385;51.412;5.540;2022-12-18T06:21:24;42.17;;;19.30;;
24261;SDS011;12385;51.412;5.540;2022-12-18T06:23:49;40.00;;;18.33;;
24261;SDS011;12385;51.412;5.540;2022-12-18T06:26:15;46.05;;;19.88;;
24261;SDS011;12385;51.412;5.540;2022-12-18T06:28:41;48.05;;;19.42;;
24261;SDS011;12385;51.412;5.540;2022-12-18T06:31:07;47.00;;;19.70;;
24261;SDS011;12385;51.412;5.540;2022-12-18T06:33:33;48.03;;;20.23;;
24261;SDS011;12385;51.412;5.540;2022-12-18T06:36:03;49.35;;;20.35;;
24261;SDS011;12385;51.412;5.540;2022-12-18T06:38:32;48.33;;;21.33;;
24261;SDS011;12385;51.412;5.540;2022-12-18T06:40:58;50.25;;;20.75;;
24261;SDS011;12385;51.412;5.540;2022-12-18T06:43:24;44.28;;;20.05;;
24261;SDS011;12385;51.412;5.540;2022-12-18T06:45:50;54.22;;;21.00;;
24261;SDS011;12385;51.412;5.540;2022-12-18T06:48:20;46.30;;;20.27;;
24261;SDS011;12385;51.412;5.540;2022-12-18T06:50:46;35.97;;;15.52;;
24261;SDS011;12385;51.412;5.540;2022-12-18T06:53:12;46.53;;;19.88;;
24261;SDS011;12385;51.412;5.540;2022-12-18T06:55:38;52.00;;;22.05;;
24261;SDS011;12385;51.412;5.540;2022-12-18T06:58:03;50.17;;;21.15;;
24261;SDS011;12385;51.412;5.540;2022-12-18T07:00:29;53.60;;;20.50;;
24261;SDS011;12385;51.412;5.540;2022-12-18T07:02:55;51.17;;;22.77;;
24261;SDS011;12385;51.412;5.540;2022-12-18T07:05:20;50.80;;;22.17;;
24261;SDS011;12385;51.412;5.540;2022-12-18T07:07:46;52.35;;;22.63;;
24261;SDS011;12385;51.412;5.540;2022-12-18T07:10:12;54.42;;;23.45;;
24261;SDS011;12385;51.412;5.540;2022-12-18T07:12:37;50.10;;;21.67;;
24261;SDS011;12385;51.412;5.540;2022-12-18T07:15:03;55.20;;;22.67;;
24261;SDS011;12385;51.412;5.540;2022-12-18T07:17:29;56.78;;;22.17;;
24261;SDS011;12385;51.412;5.540;2022-12-18T07:19:55;49.42;;;22.52;;
24261;SDS011;12385;51.412;5.540;2022-12-18T07:22:21;49.90;;;22.17;;
24261;SDS011;12385;51.412;5.540;2022-12-18T07:24:46;55.45;;;23.17;;
24261;SDS011;12385;51.412;5.540;2022-12-18T07:27:12;53.50;;;23.80;;
24261;SDS011;12385;51.412;5.540;2022-12-18T07:29:37;60.90;;;22.95;;
24261;SDS011;12385;51.412;5.540;2022-12-18T07:32:03;51.72;;;22.35;;
24261;SDS011;12385;51.412;5.540;2022-12-18T07:34:29;54.00;;;24.05;;
24261;SDS011;12385;51.412;5.540;2022-12-18T07:36:55;55.08;;;23.40;;
24261;SDS011;12385;51.412;5.540;2022-12-18T07:39:21;54.25;;;23.35;;
24261;SDS011;12385;51.412;5.540;2022-12-18T07:41:46;56.63;;;23.60;;
24261;SDS011;12385;51.412;5.540;2022-12-18T07:44:32;59.78;;;23.92;;
24261;SDS011;12385;51.412;5.540;2022-12-18T07:46:57;59.45;;;24.67;;
24261;SDS011;12385;51.412;5.540;2022-12-18T07:49:23;57.58;;;23.13;;
24261;SDS011;12385;51.412;5.540;2022-12-18T07:51:48;53.20;;;23.02;;
24261;SDS011;12385;51.412;5.540;2022-12-18T07:54:14;57.85;;;23.83;;
24261;SDS011;12385;51.412;5.540;2022-12-18T07:56:40;64.97;;;24.65;;
24261;SDS011;12385;51.412;5.540;2022-12-18T07:59:05;58.47;;;24.35;;
24261;SDS011;12385;51.412;5.540;2022-12-18T08:01:31;57.45;;;24.98;;
24261;SDS011;12385;51.412;5.540;2022-12-18T08:03:57;54.53;;;24.00;;
24261;SDS011;12385;51.412;5.540;2022-12-18T08:06:23;60.08;;;24.30;;
24261;SDS011;12385;51.412;5.540;2022-12-18T08:08:50;58.65;;;24.58;;
24261;SDS011;12385;51.412;5.540;2022-12-18T08:11:20;57.50;;;25.42;;
24261;SDS011;12385;51.412;5.540;2022-12-18T08:13:46;56.38;;;25.05;;
24261;SDS011;12385;51.412;5.540;2022-12-18T08:16:12;58.72;;;24.33;;
24261;SDS011;12385;51.412;5.540;2022-12-18T08:18:37;57.33;;;25.02;;
24261;SDS011;12385;51.412;5.540;2022-12-18T08:21:09;55.38;;;23.85;;
24261;SDS011;12385;51.412;5.540;2022-12-18T08:23:36;53.38;;;24.15;;
24261;SDS011;12385;51.412;5.540;2022-12-18T08:26:02;59.40;;;25.65;;
24261;SDS011;12385;51.412;5.540;2022-12-18T08:28:27;55.63;;;26.75;;
24261;SDS011;12385;51.412;5.540;2022-12-18T08:30:53;58.17;;;25.48;;
24261;SDS011;12385;51.412;5.540;2022-12-18T08:33:18;60.53;;;26.48;;
24261;SDS011;12385;51.412;5.540;2022-12-18T08:35:44;60.35;;;26.30;;
24261;SDS011;12385;51.412;5.540;2022-12-18T08:38:10;58.83;;;26.58;;
24261;SDS011;12385;51.412;5.540;2022-12-18T08:40:35;60.25;;;27.33;;
24261;SDS011;12385;51.412;5.540;2022-12-18T08:43:01;61.63;;;27.92;;
24261;SDS011;12385;51.412;5.540;2022-12-18T08:45:45;58.40;;;26.08;;
24261;SDS011;12385;51.412;5.540;2022-12-18T08:48:10;64.32;;;26.85;;
24261;SDS011;12385;51.412;5.540;2022-12-18T08:50:36;62.90;;;26.33;;
24261;SDS011;12385;51.412;5.540;2022-12-18T08:53:02;59.78;;;27.52;;
24261;SDS011;12385;51.412;5.540;2022-12-18T08:55:27;60.67;;;26.52;;
24261;SDS011;12385;51.412;5.540;2022-12-18T08:57:53;62.35;;;27.13;;
24261;SDS011;12385;51.412;5.540;2022-12-18T09:00:19;60.15;;;25.70;;
24261;SDS011;12385;51.412;5.540;2022-12-18T09:02:45;71.90;;;27.00;;
24261;SDS011;12385;51.412;5.540;2022-12-18T09:05:10;59.20;;;26.33;;
24261;SDS011;12385;51.412;5.540;2022-12-18T09:07:36;61.53;;;25.92;;
24261;SDS011;12385;51.412;5.540;2022-12-18T09:10:02;58.90;;;26.67;;
24261;SDS011;12385;51.412;5.540;2022-12-18T09:12:28;58.83;;;26.27;;
24261;SDS011;12385;51.412;5.540;2022-12-18T09:14:54;62.70;;;26.27;;
24261;SDS011;12385;51.412;5.540;2022-12-18T09:17:21;58.53;;;25.60;;
24261;SDS011;12385;51.412;5.540;2022-12-18T09:19:46;56.15;;;26.10;;
24261;SDS011;12385;51.412;5.540;2022-12-18T09:22:12;52.42;;;24.58;;
24261;SDS011;12385;51.412;5.540;2022-12-18T09:24:38;56.50;;;26.10;;
24261;SDS011;12385;51.412;5.540;2022-12-18T09:27:03;55.83;;;24.42;;
24261;SDS011;12385;51.412;5.540;2022-12-18T09:29:29;59.95;;;25.38;;
24261;SDS011;12385;51.412;5.540;2022-12-18T09:31:55;55.22;;;25.92;;
24261;SDS011;12385;51.412;5.540;2022-12-18T09:34:21;56.70;;;25.55;;
24261;SDS011;12385;51.412;5.540;2022-12-18T09:36:47;57.63;;;25.95;;
24261;SDS011;12385;51.412;5.540;2022-12-18T09:39:14;56.55;;;26.05;;
24261;SDS011;12385;51.412;5.540;2022-12-18T09:41:41;54.85;;;25.67;;
24261;SDS011;12385;51.412;5.540;2022-12-18T09:44:53;54.30;;;24.98;;
24261;SDS011;12385;51.412;5.540;2022-12-18T09:49:37;56.25;;;25.70;;
24261;SDS011;12385;51.412;5.540;2022-12-18T09:52:11;57.53;;;27.63;;
24261;SDS011;12385;51.412;5.540;2022-12-18T09:54:46;61.45;;;28.30;;
24261;SDS011;12385;51.412;5.540;2022-12-18T09:57:33;61.72;;;28.08;;
24261;SDS011;12385;51.412;5.540;2022-12-18T10:00:08;62.22;;;30.48;;
24261;SDS011;12385;51.412;5.540;2022-12-18T10:02:43;65.63;;;30.33;;
24261;SDS011;12385;51.412;5.540;2022-12-18T10:05:14;58.67;;;29.13;;
24261;SDS011;12385;51.412;5.540;2022-12-18T10:07:47;59.40;;;29.17;;
24261;SDS011;12385;51.412;5.540;2022-12-18T10:10:38;64.43;;;31.23;;
24261;SDS011;12385;51.412;5.540;2022-12-18T10:16:00;66.30;;;31.67;;
24261;SDS011;12385;51.412;5.540;2022-12-18T10:18:49;62.28;;;29.85;;
24261;SDS011;12385;51.412;5.540;2022-12-18T10:21:45;61.00;;;28.15;;
24261;SDS011;12385;51.412;5.540;2022-12-18T10:25:14;58.30;;;26.65;;
24261;SDS011;12385;51.412;5.540;2022-12-18T10:27:23;53.15;;;26.35;;
24261;SDS011;12385;51.412;5.540;2022-12-18T10:29:51;51.95;;;23.77;;
24261;SDS011;12385;51.412;5.540;2022-12-18T10:32:18;57.30;;;25.48;;
24261;SDS011;12385;51.412;5.540;2022-12-18T10:34:49;46.25;;;23.40;;
24261;SDS011;12385;51.412;5.540;2022-12-18T10:37:18;50.50;;;24.63;;
24261;SDS011;12385;51.412;5.540;2022-12-18T10:40:21;50.47;;;24.23;;
24261;SDS011;12385;51.412;5.540;2022-12-18T10:42:41;53.60;;;23.65;;
24261;SDS011;12385;51.412;5.540;2022-12-18T10:47:43;46.40;;;23.27;;
24261;SDS011;12385;51.412;5.540;2022-12-18T10:53:01;52.47;;;23.48;;
24261;SDS011;12385;51.412;5.540;2022-12-18T10:55:38;48.80;;;23.45;;
24261;SDS011;12385;51.412;5.540;2022-12-18T10:58:26;49.28;;;23.00;;
24261;SDS011;12385;51.412;5.540;2022-12-18T11:06:15;48.40;;;23.65;;
24261;SDS011;12385;51.412;5.540;2022-12-18T11:08:46;48.33;;;22.30;;
24261;SDS011;12385;51.412;5.540;2022-12-18T11:11:23;44.88;;;23.13;;
24261;SDS011;12385;51.412;5.540;2022-12-18T11:13:58;45.72;;;22.08;;
24261;SDS011;12385;51.412;5.540;2022-12-18T11:16:36;51.63;;;23.02;;
24261;SDS011;12385;51.412;5.540;2022-12-18T11:21:57;46.60;;;22.40;;
24261;SDS011;12385;51.412;5.540;2022-12-18T11:27:00;42.10;;;21.90;;
24261;SDS011;12385;51.412;5.540;2022-12-18T11:29:39;48.40;;;23.00;;
24261;SDS011;12385;51.412;5.540;2022-12-18T11:34:39;46.50;;;22.38;;
24261;SDS011;12385;51.412;5.540;2022-12-18T11:37:10;44.42;;;22.45;;
24261;SDS011;12385;51.412;5.540;2022-12-18T11:39:38;40.78;;;22.15;;
24261;SDS011;12385;51.412;5.540;2022-12-18T11:42:15;41.17;;;22.20;;
24261;SDS011;12385;51.412;5.540;2022-12-18T11:44:52;45.30;;;22.08;;
24261;SDS011;12385;51.412;5.540;2022-12-18T11:47:52;43.22;;;21.85;;
24261;SDS011;12385;51.412;5.540;2022-12-18T11:53:19;46.08;;;21.10;;
24261;SDS011;12385;51.412;5.540;2022-12-18T12:01:09;44.45;;;21.10;;
24261;SDS011;12385;51.412;5.540;2022-12-18T12:04:09;40.05;;;20.98;;
24261;SDS011;12385;51.412;5.540;2022-12-18T12:09:30;42.30;;;22.13;;
24261;SDS011;12385;51.412;5.540;2022-12-18T12:12:27;43.55;;;21.80;;
24261;SDS011;12385;51.412;5.540;2022-12-18T12:17:53;41.72;;;21.55;;
24261;SDS011;12385;51.412;5.540;2022-12-18T12:25:50;42.30;;;20.45;;
24261;SDS011;12385;51.412;5.540;2022-12-18T12:28:31;40.78;;;21.13;;
24261;SDS011;12385;51.412;5.540;2022-12-18T12:36:51;41.80;;;21.00;;
24261;SDS011;12385;51.412;5.540;2022-12-18T12:39:22;41.38;;;21.45;;
24261;SDS011;12385;51.412;5.540;2022-12-18T12:42:18;42.60;;;21.48;;
24261;SDS011;12385;51.412;5.540;2022-12-18T12:47:44;44.47;;;19.83;;
24261;SDS011;12385;51.412;5.540;2022-12-18T12:50:16;40.45;;;20.05;;
24261;SDS011;12385;51.412;5.540;2022-12-18T12:52:46;40.45;;;21.13;;
24261;SDS011;12385;51.412;5.540;2022-12-18T12:55:25;41.83;;;20.85;;
24261;SDS011;12385;51.412;5.540;2022-12-18T12:58:05;42.83;;;19.73;;
24261;SDS011;12385;51.412;5.540;2022-12-18T13:03:39;39.38;;;20.33;;
24261;SDS011;12385;51.412;5.540;2022-12-18T13:06:29;38.00;;;20.02;;
24261;SDS011;12385;51.412;5.540;2022-12-18T13:09:05;39.55;;;20.05;;
24261;SDS011;12385;51.412;5.540;2022-12-18T13:11:35;41.85;;;19.52;;
24261;SDS011;12385;51.412;5.540;2022-12-18T13:14:32;37.97;;;19.55;;
24261;SDS011;12385;51.412;5.540;2022-12-18T13:19:44;41.92;;;19.38;;
24261;SDS011;12385;51.412;5.540;2022-12-18T13:22:37;39.92;;;20.60;;
24261;SDS011;12385;51.412;5.540;2022-12-18T13:35:40;36.72;;;19.40;;
24261;SDS011;12385;51.412;5.540;2022-12-18T13:40:57;43.55;;;20.00;;
24261;SDS011;12385;51.412;5.540;2022-12-18T13:43:35;37.13;;;19.35;;
24261;SDS011;12385;51.412;5.540;2022-12-18T13:51:38;36.35;;;18.10;;
24261;SDS011;12385;51.412;5.540;2022-12-18T13:54:20;36.45;;;18.77;;
24261;SDS011;12385;51.412;5.540;2022-12-18T13:57:05;39.25;;;19.48;;
24261;SDS011;12385;51.412;5.540;2022-12-18T13:59:59;38.60;;;19.75;;
24261;SDS011;12385;51.412;5.540;2022-12-18T14:02:44;36.17;;;18.23;;
24261;SDS011;12385;51.412;5.540;2022-12-18T14:08:03;37.55;;;18.73;;
24261;SDS011;12385;51.412;5.540;2022-12-18T14:10:31;40.75;;;18.85;;
24261;SDS011;12385;51.412;5.540;2022-12-18T14:12:57;36.65;;;18.42;;
24261;SDS011;12385;51.412;5.540;2022-12-18T14:18:02;37.97;;;19.30;;
24261;SDS011;12385;51.412;5.540;2022-12-18T14:20:45;36.13;;;18.88;;
24261;SDS011;12385;51.412;5.540;2022-12-18T14:23:33;40.13;;;19.38;;
24261;SDS011;12385;51.412;5.540;2022-12-18T14:26:20;40.00;;;18.88;;
24261;SDS011;12385;51.412;5.540;2022-12-18T14:31:22;34.38;;;18.45;;
24261;SDS011;12385;51.412;5.540;2022-12-18T14:33:52;37.58;;;19.48;;
24261;SDS011;12385;51.412;5.540;2022-12-18T14:36:22;36.28;;;20.25;;
24261;SDS011;12385;51.412;5.540;2022-12-18T14:38:58;42.67;;;19.60;;
24261;SDS011;12385;51.412;5.540;2022-12-18T14:41:24;38.65;;;19.77;;
24261;SDS011;12385;51.412;5.540;2022-12-18T14:43:51;38.65;;;19.30;;
24261;SDS011;12385;51.412;5.540;2022-12-18T14:49:46;40.22;;;20.17;;
24261;SDS011;12385;51.412;5.540;2022-12-18T14:54:23;40.08;;;20.05;;
24261;SDS011;12385;51.412;5.540;2022-12-18T14:56:51;37.10;;;19.15;;
24261;SDS011;12385;51.412;5.540;2022-12-18T14:59:27;37.35;;;19.27;;
24261;SDS011;12385;51.412;5.540;2022-12-18T15:01:57;37.42;;;19.67;;
24261;SDS011;12385;51.412;5.540;2022-12-18T15:04:36;40.80;;;20.42;;
24261;SDS011;12385;51.412;5.540;2022-12-18T15:09:37;38.88;;;19.85;;
24261;SDS011;12385;51.412;5.540;2022-12-18T15:12:04;38.25;;;19.70;;
24261;SDS011;12385;51.412;5.540;2022-12-18T15:17:00;38.30;;;20.00;;
24261;SDS011;12385;51.412;5.540;2022-12-18T15:19:33;38.22;;;19.35;;
24261;SDS011;12385;51.412;5.540;2022-12-18T15:24:51;38.28;;;19.45;;
24261;SDS011;12385;51.412;5.540;2022-12-18T15:27:30;42.13;;;19.08;;
24261;SDS011;12385;51.412;5.540;2022-12-18T15:32:35;37.40;;;19.35;;
24261;SDS011;12385;51.412;5.540;2022-12-18T15:35:03;37.97;;;19.00;;
24261;SDS011;12385;51.412;5.540;2022-12-18T15:37:37;40.83;;;20.95;;
24261;SDS011;12385;51.412;5.540;2022-12-18T15:40:03;39.35;;;19.75;;
24261;SDS011;12385;51.412;5.540;2022-12-18T15:42:29;41.58;;;20.88;;
24261;SDS011;12385;51.412;5.540;2022-12-18T15:45:13;41.35;;;20.25;;
24261;SDS011;12385;51.412;5.540;2022-12-18T15:47:39;37.17;;;19.42;;
24261;SDS011;12385;51.412;5.540;2022-12-18T15:50:07;37.80;;;19.58;;
24261;SDS011;12385;51.412;5.540;2022-12-18T15:52:39;41.15;;;20.38;;
24261;SDS011;12385;51.412;5.540;2022-12-18T15:55:15;38.72;;;19.15;;
24261;SDS011;12385;51.412;5.540;2022-12-18T15:58:05;38.67;;;19.90;;
24261;SDS011;12385;51.412;5.540;2022-12-18T16:00:31;40.78;;;20.38;;
24261;SDS011;12385;51.412;5.540;2022-12-18T16:02:58;43.47;;;20.35;;
24261;SDS011;12385;51.412;5.540;2022-12-18T16:05:24;38.92;;;19.58;;
24261;SDS011;12385;51.412;5.540;2022-12-18T16:07:51;34.78;;;18.70;;
24261;SDS011;12385;51.412;5.540;2022-12-18T16:10:17;36.20;;;19.40;;
24261;SDS011;12385;51.412;5.540;2022-12-18T16:12:43;37.83;;;19.52;;
24261;SDS011;12385;51.412;5.540;2022-12-18T16:15:10;39.05;;;20.30;;
24261;SDS011;12385;51.412;5.540;2022-12-18T16:17:38;39.53;;;19.83;;
24261;SDS011;12385;51.412;5.540;2022-12-18T16:20:18;41.40;;;20.92;;
24261;SDS011;12385;51.412;5.540;2022-12-18T16:22:46;42.08;;;20.15;;
24261;SDS011;12385;51.412;5.540;2022-12-18T16:25:17;37.13;;;19.88;;
24261;SDS011;12385;51.412;5.540;2022-12-18T16:27:47;36.35;;;19.83;;
24261;SDS011;12385;51.412;5.540;2022-12-18T16:30:16;39.28;;;20.30;;
24261;SDS011;12385;51.412;5.540;2022-12-18T16:32:45;36.65;;;19.73;;
24261;SDS011;12385;51.412;5.540;2022-12-18T16:35:11;37.38;;;20.92;;
24261;SDS011;12385;51.412;5.540;2022-12-18T16:37:42;39.05;;;19.80;;
24261;SDS011;12385;51.412;5.540;2022-12-18T16:40:09;39.28;;;20.70;;
24261;SDS011;12385;51.412;5.540;2022-12-18T16:42:37;41.30;;;20.17;;
24261;SDS011;12385;51.412;5.540;2022-12-18T16:45:05;40.60;;;21.13;;
24261;SDS011;12385;51.412;5.540;2022-12-18T16:47:32;40.60;;;20.13;;
24261;SDS011;12385;51.412;5.540;2022-12-18T16:49:58;40.95;;;20.58;;
24261;SDS011;12385;51.412;5.540;2022-12-18T16:52:23;43.35;;;21.40;;